Time;durP1;ratioP1;P1;durP2;ratioP2;P2;SDS_P1;SDS_P2;PMS_P1;PMS_P2;Temp;Humidity;BMP_temperature;BMP_pressure;BME280_temperature;BME280_humidity;BME280_pressure;Samples;Min_cycle;Max_cycle;Signal;HPM_P1;HPM_P2
2022/01/07 00:00:21;;;;;;;10.05;4.72;;;;;;;2.47;84.61;101256.63;2107325;28;20091;-63
2022/01/07 00:01:22;;;;;;;7.45;3.78;;;;;;;2.47;84.54;101251.50;2107303;28;20035;-64
2022/01/07 00:02:22;;;;;;;11.38;4.22;;;;;;;2.46;84.19;101242.03;2107347;28;20032;-65
2022/01/07 00:03:22;;;;;;;8.13;4.37;;;;;;;2.46;83.87;101249.75;2107256;28;20484;-64
2022/01/07 00:04:23;;;;;;;6.77;4.00;;;;;;;2.47;83.86;101242.88;2107317;28;20104;-65
2022/01/07 00:05:25;;;;;;;8.47;4.10;;;;;;;2.46;83.87;101242.03;2107372;28;20028;-63
2022/01/07 00:06:25;;;;;;;7.80;3.95;;;;;;;2.48;83.47;101242.03;2098225;28;20021;-65
2022/01/07 00:07:25;;;;;;;6.83;4.33;;;;;;;2.49;84.54;101239.44;2098287;28;20063;-64
2022/01/07 00:08:30;;;;;;;12.87;4.70;;;;;;;2.49;83.51;101239.44;2107312;28;20024;-63
2022/01/07 00:09:30;;;;;;;12.90;4.30;;;;;;;2.50;83.97;101241.16;2107276;28;20069;-65
2022/01/07 00:10:31;;;;;;;11.47;3.60;;;;;;;2.50;83.50;101233.41;2107257;28;20024;-65
2022/01/07 00:11:31;;;;;;;15.60;5.07;;;;;;;2.50;83.66;101235.16;2107267;28;20028;-64
2022/01/07 00:12:31;;;;;;;7.87;3.47;;;;;;;2.49;84.17;101234.28;2107320;28;20481;-65
2022/01/07 00:13:32;;;;;;;9.37;3.33;;;;;;;2.49;84.01;101233.44;2107325;28;20042;-64
2022/01/07 00:14:32;;;;;;;9.15;3.95;;;;;;;2.48;84.18;101240.31;2107247;28;20028;-63
2022/01/07 00:15:33;;;;;;;7.13;3.77;;;;;;;2.47;84.50;101227.44;2107176;28;20055;-65
2022/01/07 00:16:33;;;;;;;8.90;4.00;;;;;;;2.46;85.27;101225.72;2107284;28;20545;-66
2022/01/07 00:17:34;;;;;;;5.53;3.42;;;;;;;2.43;84.99;101231.75;2107211;28;20067;-65
2022/01/07 00:18:35;;;;;;;9.68;3.80;;;;;;;2.45;84.61;101230.00;2107176;28;20036;-64
2022/01/07 00:19:35;;;;;;;8.13;3.80;;;;;;;2.46;84.48;101223.16;2107235;28;20380;-64
2022/01/07 00:20:37;;;;;;;9.10;3.60;;;;;;;2.48;84.29;101239.44;2107273;28;20026;-65
2022/01/07 00:21:37;;;;;;;5.97;3.28;;;;;;;2.46;84.56;101234.28;2107255;28;20020;-65
2022/01/07 00:22:39;;;;;;;7.97;4.63;;;;;;;2.43;84.53;101224.84;2107240;28;20030;-65
2022/01/07 00:23:39;;;;;;;8.27;4.00;;;;;;;2.42;84.68;101227.44;2107134;28;20557;-64
2022/01/07 00:24:40;;;;;;;10.87;4.30;;;;;;;2.39;85.01;101210.25;2098186;28;20028;-64
2022/01/07 00:25:40;;;;;;;9.87;4.23;;;;;;;2.37;85.50;101217.16;2098232;28;20017;-65
2022/01/07 00:26:41;;;;;;;10.53;3.97;;;;;;;2.37;85.06;101203.41;2107193;28;20047;-64
2022/01/07 00:27:42;;;;;;;6.40;3.30;;;;;;;2.35;85.65;101207.69;2107074;28;20020;-66
2022/01/07 00:28:42;;;;;;;6.60;3.88;;;;;;;2.33;85.68;101206.84;2107019;28;20047;-67
2022/01/07 00:29:42;;;;;;;9.13;3.57;;;;;;;2.30;86.72;101207.72;2107000;28;20016;-67
2022/01/07 00:30:43;;;;;;;9.77;4.27;;;;;;;2.27;86.75;101202.56;2107179;28;20051;-64
2022/01/07 00:31:43;;;;;;;6.97;3.60;;;;;;;2.26;86.56;101201.69;2106437;28;20023;-67
2022/01/07 00:32:43;;;;;;;11.03;3.77;;;;;;;2.26;86.88;101196.56;2106518;28;20113;-67
2022/01/07 00:33:43;;;;;;;8.10;3.77;;;;;;;2.25;87.29;101200.00;2098044;28;20024;-67
2022/01/07 00:34:44;;;;;;;9.87;4.20;;;;;;;2.24;87.54;101197.41;2098142;28;20085;-67
2022/01/07 00:35:44;;;;;;;7.00;3.37;;;;;;;2.23;87.62;101198.28;2107078;28;20500;-66
2022/01/07 00:36:44;;;;;;;9.70;3.37;;;;;;;2.22;87.06;101200.00;2098097;28;20021;-65
2022/01/07 00:37:46;;;;;;;6.70;3.90;;;;;;;2.23;87.13;101198.28;2098026;28;20286;-66
2022/01/07 00:38:46;;;;;;;6.38;3.22;;;;;;;2.22;86.91;101205.16;2106518;28;20028;-64
2022/01/07 00:39:48;;;;;;;5.90;3.70;;;;;;;2.23;86.94;101201.72;2106973;28;20381;-64
2022/01/07 00:40:49;;;;;;;9.48;4.10;;;;;;;2.22;87.44;101183.72;2107047;28;20012;-64
2022/01/07 00:41:49;;;;;;;7.03;3.28;;;;;;;2.20;88.47;101186.28;2107065;28;20381;-66
2022/01/07 00:42:51;;;;;;;9.10;3.73;;;;;;;2.18;87.93;101190.56;2107036;28;20020;-63
2022/01/07 00:43:51;;;;;;;9.40;4.53;;;;;;;2.17;87.79;101181.13;2097939;28;20024;-64
2022/01/07 00:44:51;;;;;;;9.10;3.53;;;;;;;2.17;88.12;101178.56;2098045;28;20051;-67
2022/01/07 00:45:52;;;;;;;9.47;4.13;;;;;;;2.14;88.40;101183.69;2107134;28;20039;-66
2022/01/07 00:46:52;;;;;;;7.33;3.70;;;;;;;2.13;88.90;101182.00;2107048;28;20020;-66
2022/01/07 00:47:54;;;;;;;5.03;3.77;;;;;;;2.12;88.87;101167.41;2106967;28;20089;-67
2022/01/07 00:48:54;;;;;;;8.77;4.07;;;;;;;2.12;88.66;101177.72;2106954;28;20028;-67
2022/01/07 00:49:55;;;;;;;7.97;3.60;;;;;;;2.09;89.05;101167.41;2106891;28;20031;-67
2022/01/07 00:50:55;;;;;;;9.87;3.13;;;;;;;2.08;88.85;101169.13;2106950;28;20747;-66
2022/01/07 00:51:58;;;;;;;10.60;4.27;;;;;;;2.11;88.93;101170.81;2106879;28;20099;-65
2022/01/07 00:52:59;;;;;;;14.23;3.22;;;;;;;2.11;88.21;101161.41;2106954;28;20476;-63
2022/01/07 00:53:59;;;;;;;9.00;3.55;;;;;;;2.11;87.67;101161.41;2097816;28;20034;-64
2022/01/07 00:55:00;;;;;;;7.37;3.37;;;;;;;2.13;88.61;101174.28;2098013;28;20361;-66
2022/01/07 00:56:00;;;;;;;10.90;3.75;;;;;;;2.13;88.12;101153.66;2106964;28;20342;-65
2022/01/07 00:57:01;;;;;;;8.03;3.20;;;;;;;2.13;87.84;101166.53;2107013;28;20019;-66
2022/01/07 00:58:01;;;;;;;6.67;3.53;;;;;;;2.14;88.25;101150.22;2106903;28;20461;-67
2022/01/07 00:59:01;;;;;;;9.93;3.63;;;;;;;2.12;88.51;101146.81;2106954;28;20038;-65
2022/01/07 01:00:09;;;;;;;8.37;3.67;;;;;;;2.12;88.70;101147.66;2106187;28;20073;-66
2022/01/07 01:01:09;;;;;;;7.18;3.53;;;;;;;2.11;88.41;101134.78;2106147;28;20443;-67
2022/01/07 01:02:09;;;;;;;9.17;3.73;;;;;;;2.12;88.63;101150.22;2106588;28;20054;-66
2022/01/07 01:03:09;;;;;;;9.30;4.27;;;;;;;2.12;88.45;101146.81;2106871;28;20520;-67
2022/01/07 01:04:10;;;;;;;9.10;3.30;;;;;;;2.12;88.52;101146.81;2106768;28;20024;-65
2022/01/07 01:05:12;;;;;;;9.43;3.70;;;;;;;2.12;87.98;101139.94;2106860;28;20115;-66
2022/01/07 01:06:12;;;;;;;5.88;3.00;;;;;;;2.13;87.88;101143.38;2097711;28;20087;-65
2022/01/07 01:07:14;;;;;;;7.33;2.73;;;;;;;2.15;88.24;101144.22;2097791;28;20067;-64
2022/01/07 01:08:15;;;;;;;13.20;3.90;;;;;;;2.14;88.07;101140.78;2106843;28;20034;-65
2022/01/07 01:09:15;;;;;;;7.13;3.78;;;;;;;2.15;88.01;101146.78;2106837;28;20117;-64
2022/01/07 01:10:19;;;;;;;5.87;3.37;;;;;;;2.15;88.56;101134.78;2106779;28;20067;-67
2022/01/07 01:11:20;;;;;;;7.07;3.33;;;;;;;2.14;88.01;101135.66;2106809;28;20026;-65
2022/01/07 01:12:20;;;;;;;6.60;3.03;;;;;;;2.14;87.93;101140.78;2097751;28;20017;-66
2022/01/07 01:13:21;;;;;;;14.03;3.40;;;;;;;2.15;88.82;101136.47;2097973;28;20024;-65
2022/01/07 01:14:21;;;;;;;7.32;3.40;;;;;;;2.16;87.88;101135.66;2097729;28;20081;-65
2022/01/07 01:15:24;;;;;;;7.20;3.33;;;;;;;2.14;88.14;101124.47;2097865;28;20429;-65
2022/01/07 01:16:24;;;;;;;6.72;3.45;;;;;;;2.14;87.75;101124.47;2097599;28;20032;-66
2022/01/07 01:17:25;;;;;;;8.83;4.10;;;;;;;2.14;87.62;101119.31;2097720;28;20088;-66
2022/01/07 01:18:25;;;;;;;11.23;3.37;;;;;;;2.15;87.78;101126.19;2097792;28;20036;-67
2022/01/07 01:19:27;;;;;;;10.57;3.60;;;;;;;2.15;88.17;101131.34;2106090;28;20020;-66
2022/01/07 01:20:28;;;;;;;9.10;3.35;;;;;;;2.14;88.18;101121.91;2106173;28;20027;-68
2022/01/07 01:21:28;;;;;;;6.10;3.00;;;;;;;2.14;88.19;101119.31;2106788;28;20024;-68
2022/01/07 01:22:29;;;;;;;9.77;3.53;;;;;;;2.12;88.41;101118.50;2106752;28;20031;-67
2022/01/07 01:23:29;;;;;;;8.13;3.47;;;;;;;2.13;87.68;101118.50;2097594;28;20028;-67
2022/01/07 01:24:30;;;;;;;9.60;3.37;;;;;;;2.14;88.10;101124.47;2097764;28;20112;-65
2022/01/07 01:25:30;;;;;;;6.00;3.60;;;;;;;2.15;87.76;101115.88;2106775;28;20500;-66
2022/01/07 01:26:31;;;;;;;8.63;3.25;;;;;;;2.18;87.50;101113.31;2106724;28;20028;-65
2022/01/07 01:27:31;;;;;;;7.40;3.67;;;;;;;2.18;87.02;101111.59;2106664;28;20020;-64
2022/01/07 01:28:32;;;;;;;6.63;2.95;;;;;;;2.18;87.60;101113.31;2106430;28;20052;-67
2022/01/07 01:29:32;;;;;;;12.23;4.47;;;;;;;2.19;86.87;101117.63;2106760;28;20076;-66
2022/01/07 01:30:35;;;;;;;9.63;4.30;;;;;;;2.19;87.20;101109.91;2106514;28;20026;-65
2022/01/07 01:31:36;;;;;;;6.60;3.20;;;;;;;2.19;87.66;101112.47;2097657;28;20024;-64
2022/01/07 01:32:36;;;;;;;5.35;3.00;;;;;;;2.19;87.04;101107.31;2097800;28;20033;-65
2022/01/07 01:33:37;;;;;;;6.68;3.45;;;;;;;2.19;87.33;101089.28;2106701;28;20031;-65
2022/01/07 01:34:37;;;;;;;8.17;3.30;;;;;;;2.19;87.10;101097.84;2106657;28;20024;-66
2022/01/07 01:35:39;;;;;;;11.90;3.93;;;;;;;2.21;86.88;101104.72;2106669;28;20020;-63
2022/01/07 01:36:40;;;;;;;9.88;3.42;;;;;;;2.23;86.79;101105.56;2106667;28;20050;-64
2022/01/07 01:37:40;;;;;;;7.30;2.83;;;;;;;2.24;86.66;101105.56;2106719;28;20138;-65
2022/01/07 01:38:41;;;;;;;7.15;3.30;;;;;;;2.24;86.12;101102.13;2106768;28;20027;-65
2022/01/07 01:39:42;;;;;;;8.35;2.95;;;;;;;2.25;86.34;101098.69;2106697;28;20024;-66
2022/01/07 01:40:42;;;;;;;5.33;3.00;;;;;;;2.24;87.17;101090.13;2106698;28;20020;-67
2022/01/07 01:41:44;;;;;;;4.80;2.43;;;;;;;2.23;87.52;101093.56;2106643;28;20020;-67
2022/01/07 01:42:46;;;;;;;6.90;3.25;;;;;;;2.22;87.17;101091.81;2106615;28;20031;-66
2022/01/07 01:43:48;;;;;;;11.57;3.15;;;;;;;2.25;86.37;101096.97;2097607;28;20107;-64
2022/01/07 01:44:49;;;;;;;5.65;2.92;;;;;;;2.25;87.25;101086.69;2097974;28;20017;-65
2022/01/07 01:45:50;;;;;;;9.90;3.10;;;;;;;2.26;87.19;101095.28;2105939;28;20525;-63
2022/01/07 01:46:50;;;;;;;5.40;2.83;;;;;;;2.25;86.59;101091.81;2106002;28;20396;-65
2022/01/07 01:47:52;;;;;;;5.83;3.00;;;;;;;2.26;86.25;101085.81;2097600;28;20027;-66
2022/01/07 01:48:52;;;;;;;6.10;2.97;;;;;;;2.27;86.23;101087.53;2097767;28;20016;-66
2022/01/07 01:49:52;;;;;;;6.63;3.30;;;;;;;2.29;86.10;101083.22;2106543;28;20154;-66
2022/01/07 01:50:55;;;;;;;7.60;3.13;;;;;;;2.29;86.23;101078.06;2106661;28;20074;-67
2022/01/07 01:51:56;;;;;;;7.32;2.83;;;;;;;2.30;86.37;101087.50;2097538;28;20024;-65
2022/01/07 01:52:56;;;;;;;8.73;2.90;;;;;;;2.30;86.41;101069.47;2089150;28;20021;-67
2022/01/07 01:53:57;;;;;;;6.18;2.95;;;;;;;2.31;86.50;101072.91;2097424;28;20055;-65
2022/01/07 01:54:57;;;;;;;6.77;3.10;;;;;;;2.29;87.27;101072.91;2105868;28;20032;-68
2022/01/07 01:55:57;;;;;;;9.47;3.00;;;;;;;2.28;86.43;101071.22;2097621;28;20054;-65
2022/01/07 01:56:58;;;;;;;7.37;2.87;;;;;;;2.29;85.93;101072.91;2106516;28;20107;-64
2022/01/07 01:57:58;;;;;;;7.20;2.70;;;;;;;2.31;86.27;101066.06;2097511;28;20025;-66
2022/01/07 01:58:58;;;;;;;7.00;2.50;;;;;;;2.31;85.72;101066.06;2097649;28;20028;-65
2022/01/07 01:59:59;;;;;;;6.33;2.43;;;;;;;2.34;85.52;101064.31;2106519;28;20040;-66
2022/01/07 02:01:00;;;;;;;8.75;3.25;;;;;;;2.35;85.92;101060.88;2106467;28;20113;-67
2022/01/07 02:02:01;;;;;;;4.63;2.58;;;;;;;2.35;86.29;101060.88;2106423;28;20136;-65
2022/01/07 02:03:01;;;;;;;8.30;2.60;;;;;;;2.35;85.63;101053.13;2106477;28;20031;-66
2022/01/07 02:04:02;;;;;;;6.17;2.70;;;;;;;2.37;85.32;101048.84;2106607;28;20020;-64
2022/01/07 02:05:04;;;;;;;7.57;2.83;;;;;;;2.37;85.11;101049.72;2106458;28;20478;-64
2022/01/07 02:06:04;;;;;;;;;;;;;;;2.39;84.80;101026.53;2097878;28;20028;-65
2022/01/07 02:07:08;;;;;;;4.85;2.20;;;;;;;2.42;84.82;101057.41;2097509;28;19916;-66
2022/01/07 02:08:09;;;;;;;5.75;2.22;;;;;;;2.41;85.72;101045.41;2105797;28;20028;-65
2022/01/07 02:09:09;;;;;;;5.93;2.15;;;;;;;2.40;86.83;101048.84;2105870;28;20059;-67
2022/01/07 02:10:15;;;;;;;7.13;3.30;;;;;;;2.39;85.63;101044.56;2106508;28;20063;-67
2022/01/07 02:11:15;;;;;;;5.28;2.25;;;;;;;2.41;85.71;101045.41;2106477;28;20074;-65
2022/01/07 02:12:15;;;;;;;5.50;2.80;;;;;;;2.40;85.79;101047.09;2106511;28;20020;-68
2022/01/07 02:13:17;;;;;;;5.63;2.40;;;;;;;2.41;85.84;101050.53;2106495;28;20035;-67
2022/01/07 02:14:17;;;;;;;5.05;2.13;;;;;;;2.41;85.97;101050.53;2107562;28;20024;-67
2022/01/07 02:15:18;;;;;;;6.83;2.37;;;;;;;2.43;85.81;101044.53;2108322;28;20020;-64
2022/01/07 02:16:18;;;;;;;;;;;;;;;2.44;85.67;101030.75;2108627;28;20427;-64
2022/01/07 02:17:20;;;;;;;4.28;2.08;;;;;;;2.45;85.95;101044.50;2108135;28;19955;-65
2022/01/07 02:18:20;;;;;;;;;;;;;;;2.47;86.39;101049.66;2108595;28;20389;-64
2022/01/07 02:19:21;;;;;;;6.35;2.25;;;;;;;2.46;86.14;101051.38;2108150;28;19908;-65
2022/01/07 02:20:23;;;;;;;5.10;2.30;;;;;;;2.47;85.93;101057.38;2108146;28;20392;-66
2022/01/07 02:21:24;;;;;;;5.00;2.25;;;;;;;2.46;86.98;101053.09;2108067;28;20046;-65
2022/01/07 02:22:25;;;;;;;5.00;1.73;;;;;;;2.43;86.79;101044.53;2108114;28;20039;-66
2022/01/07 02:23:25;;;;;;;4.68;1.83;;;;;;;2.43;87.03;101048.84;2108208;28;20024;-67
2022/01/07 02:24:26;;;;;;;7.40;3.00;;;;;;;2.40;87.42;101046.28;2108172;28;20329;-66
2022/01/07 02:25:27;;;;;;;4.10;2.20;;;;;;;2.38;88.02;101045.41;2108148;28;20023;-65
2022/01/07 02:26:28;;;;;;;6.32;1.98;;;;;;;2.36;88.05;101042.00;2108107;28;20020;-66
2022/01/07 02:27:28;;;;;;;4.80;1.70;;;;;;;2.35;88.71;101042.84;2108061;28;20036;-65
2022/01/07 02:28:29;;;;;;;6.30;1.80;;;;;;;2.31;88.92;101035.16;2107991;28;20056;-65
2022/01/07 02:29:30;;;;;;;6.90;2.28;;;;;;;2.31;89.30;101042.88;2107999;28;20289;-66
2022/01/07 02:30:31;;;;;;;7.03;2.70;;;;;;;2.29;89.80;101038.59;2108008;28;20085;-66
2022/01/07 02:31:31;;;;;;;4.22;2.05;;;;;;;2.28;89.67;101029.13;2108075;28;20030;-66
2022/01/07 02:32:32;;;;;;;4.30;1.80;;;;;;;2.27;89.87;101041.19;2108093;28;20020;-65
2022/01/07 02:33:32;;;;;;;7.70;2.83;;;;;;;2.26;90.11;101033.47;2108078;28;20277;-66
2022/01/07 02:34:32;;;;;;;5.63;2.27;;;;;;;2.26;90.16;101036.03;2108077;28;20031;-64
2022/01/07 02:35:35;;;;;;;3.53;1.50;;;;;;;2.26;90.47;101030.88;2108066;28;20483;-64
2022/01/07 02:36:35;;;;;;;6.18;2.33;;;;;;;2.23;90.84;101030.88;2108038;28;20103;-64
2022/01/07 02:37:36;;;;;;;5.07;2.10;;;;;;;2.20;90.89;101031.75;2098961;28;20402;-63
2022/01/07 02:38:37;;;;;;;5.72;2.22;;;;;;;2.20;91.24;101034.34;2099126;28;20075;-64
2022/01/07 02:39:37;;;;;;;6.17;2.10;;;;;;;2.17;91.11;101027.50;2108054;28;20019;-66
2022/01/07 02:40:37;;;;;;;4.63;1.97;;;;;;;2.16;91.63;101035.22;2108024;28;20145;-67
2022/01/07 02:41:37;;;;;;;7.53;2.30;;;;;;;2.13;92.34;101037.78;2107972;28;20114;-66
2022/01/07 02:42:39;;;;;;;6.67;2.60;;;;;;;2.11;92.27;101031.78;2108018;28;20063;-67
2022/01/07 02:43:39;;;;;;;5.97;2.15;;;;;;;2.11;92.45;101026.63;2098926;28;20074;-64
2022/01/07 02:44:39;;;;;;;3.33;1.97;;;;;;;2.09;92.93;101024.06;2098984;28;20530;-67
2022/01/07 02:45:40;;;;;;;7.50;2.90;;;;;;;2.06;93.29;101027.50;2099036;28;20056;-66
2022/01/07 02:46:41;;;;;;;7.95;2.30;;;;;;;2.04;93.62;101029.25;2107923;28;20020;-65
2022/01/07 02:48:04;;;;;;;5.68;2.15;;;;;;;2.02;93.62;101023.25;2107938;28;20019;-66
2022/01/07 02:49:10;;;;;;;;;;;;;;;2.01;94.14;101024.09;2107723;28;20052;-65
2022/01/07 02:50:10;;;;;;;3.78;1.80;;;;;;;2.00;93.97;101022.41;2110640;28;19919;-66
2022/01/07 02:51:11;;;;;;;3.83;2.47;;;;;;;2.00;94.58;101018.97;2107956;28;20449;-66
2022/01/07 02:52:11;;;;;;;5.00;2.10;;;;;;;1.98;94.96;101018.97;2107908;28;20024;-66
2022/01/07 02:53:12;;;;;;;5.40;2.43;;;;;;;1.95;94.80;101018.97;2107793;28;20361;-66
2022/01/07 02:54:13;;;;;;;5.53;2.45;;;;;;;1.95;94.86;101026.69;2098799;28;20519;-65
2022/01/07 02:55:14;;;;;;;;;;;;;;;1.95;95.53;101018.97;2099422;28;20029;-66
2022/01/07 02:56:14;;;;;;;3.45;1.95;;;;;;;1.92;95.80;101019.00;2107992;28;20447;-65
2022/01/07 02:57:14;;;;;;;5.65;2.30;;;;;;;1.91;95.54;101025.00;2098827;28;20120;-65
2022/01/07 02:58:15;;;;;;;5.63;2.80;;;;;;;1.89;95.76;101017.28;2098963;28;20115;-66
2022/01/07 02:59:15;;;;;;;4.70;2.60;;;;;;;1.88;95.73;101020.72;2107892;28;20043;-64
2022/01/07 03:00:17;;;;;;;8.77;3.05;;;;;;;1.87;96.59;101023.28;2107847;28;20023;-66
2022/01/07 03:01:18;;;;;;;5.47;2.50;;;;;;;1.86;96.32;101016.44;2107970;28;20020;-67
2022/01/07 03:02:18;;;;;;;4.57;2.30;;;;;;;1.87;95.98;101013.00;2107926;28;20028;-66
2022/01/07 03:03:18;;;;;;;5.80;2.00;;;;;;;1.86;96.45;101017.31;2107912;28;20507;-64
2022/01/07 03:04:19;;;;;;;6.97;3.20;;;;;;;1.84;96.34;101007.88;2098796;28;20024;-66
2022/01/07 03:05:20;;;;;;;4.37;1.70;;;;;;;1.83;96.21;101013.88;2098771;28;20021;-67
2022/01/07 03:06:23;;;;;;;7.85;2.67;;;;;;;1.80;96.46;101010.47;2107276;28;20027;-65
2022/01/07 03:07:23;;;;;;;6.68;2.20;;;;;;;1.80;97.19;101007.88;2098831;28;20016;-64
2022/01/07 03:08:24;;;;;;;4.77;2.30;;;;;;;1.76;97.34;101006.19;2098764;28;20416;-65
2022/01/07 03:09:24;;;;;;;4.73;2.73;;;;;;;1.74;97.87;101017.34;2107186;28;20296;-65
2022/01/07 03:10:29;;;;;;;5.40;2.23;;;;;;;1.70;97.96;101001.03;2107686;28;20480;-66
2022/01/07 03:11:30;;;;;;;6.30;2.40;;;;;;;1.68;98.21;101002.78;2107828;28;20111;-65
2022/01/07 03:12:30;;;;;;;6.55;3.10;;;;;;;1.63;98.27;101009.63;2107791;28;20024;-64
2022/01/07 03:13:30;;;;;;;6.97;2.13;;;;;;;1.59;98.92;101003.66;2107670;28;20126;-65
2022/01/07 03:14:31;;;;;;;6.23;2.20;;;;;;;1.56;99.49;101002.78;2107738;28;20028;-65
2022/01/07 03:15:33;;;;;;;6.40;2.17;;;;;;;1.51;99.97;100998.50;2107748;28;20031;-64
2022/01/07 03:16:33;;;;;;;5.18;2.13;;;;;;;1.48;100.00;100995.97;2098625;28;20055;-64
2022/01/07 03:17:33;;;;;;;7.87;2.40;;;;;;;1.44;100.00;100996.84;2090372;28;20474;-64
2022/01/07 03:18:34;;;;;;;5.20;2.20;;;;;;;1.39;100.00;100996.84;2098635;28;20035;-63
2022/01/07 03:19:34;;;;;;;5.63;2.43;;;;;;;1.35;100.00;100989.13;2107651;28;20039;-63
2022/01/07 03:20:38;;;;;;;6.23;2.13;;;;;;;1.34;100.00;100982.28;2107725;28;20020;-64
2022/01/07 03:21:38;;;;;;;6.30;2.42;;;;;;;1.33;100.00;100985.72;2098571;28;20024;-64
2022/01/07 03:22:39;;;;;;;11.27;3.77;;;;;;;1.31;100.00;100979.69;2098749;28;20021;-62
2022/01/07 03:23:40;;;;;;;5.78;2.78;;;;;;;1.27;100.00;100977.13;2107582;28;20016;-64
2022/01/07 03:24:41;;;;;;;6.15;2.42;;;;;;;1.24;100.00;100984.88;2107488;28;20069;-64
2022/01/07 03:25:44;;;;;;;8.30;2.73;;;;;;;1.23;100.00;100979.72;2107652;28;20469;-64
2022/01/07 03:26:44;;;;;;;6.75;2.95;;;;;;;1.22;100.00;100977.97;2107717;28;20027;-64
2022/01/07 03:27:45;;;;;;;6.63;3.47;;;;;;;1.21;100.00;100978.84;2107685;28;20024;-63
2022/01/07 03:28:47;;;;;;;4.57;2.17;;;;;;;1.19;100.00;100978.84;2107520;28;20119;-64
2022/01/07 03:29:47;;;;;;;5.18;2.80;;;;;;;1.17;100.00;100970.31;2107470;28;20048;-63
2022/01/07 03:30:48;;;;;;;7.60;2.50;;;;;;;1.17;100.00;100985.72;2106885;28;20031;-63
2022/01/07 03:31:48;;;;;;;5.60;2.92;;;;;;;1.17;100.00;100970.31;2106918;28;20036;-62
2022/01/07 03:32:48;;;;;;;6.83;2.87;;;;;;;1.16;100.00;100978.84;2107578;28;20020;-64
2022/01/07 03:33:48;;;;;;;5.70;2.50;;;;;;;1.18;100.00;100977.16;2107537;28;20024;-63
2022/01/07 03:34:49;;;;;;;7.00;2.60;;;;;;;1.16;100.00;100968.56;2107577;28;20465;-64
2022/01/07 03:35:49;;;;;;;6.37;2.80;;;;;;;1.18;100.00;100961.72;2098438;28;20013;-63
2022/01/07 03:36:49;;;;;;;7.27;2.37;;;;;;;1.18;100.00;100966.88;2098586;28;20473;-63
2022/01/07 03:37:50;;;;;;;7.83;2.90;;;;;;;1.20;100.00;100972.84;2107413;28;20016;-63
2022/01/07 03:38:50;;;;;;;4.60;2.33;;;;;;;1.22;100.00;100962.56;2107625;28;20020;-64
2022/01/07 03:39:50;;;;;;;5.70;2.30;;;;;;;1.23;100.00;100970.28;2107586;28;20027;-62
2022/01/07 03:40:51;;;;;;;4.47;2.63;;;;;;;1.24;100.00;100966.00;2107495;28;20027;-63
2022/01/07 03:41:51;;;;;;;6.57;2.40;;;;;;;1.26;100.00;100972.84;2107458;28;20317;-63
2022/01/07 03:42:52;;;;;;;4.73;2.10;;;;;;;1.26;100.00;100970.28;2098521;28;20414;-64
2022/01/07 03:43:52;;;;;;;3.47;2.37;;;;;;;1.26;100.00;100962.56;2090162;28;20092;-63
2022/01/07 03:44:53;;;;;;;6.07;2.53;;;;;;;1.29;100.00;100964.25;2098538;28;20278;-64
2022/01/07 03:45:53;;;;;;;7.43;2.63;;;;;;;1.28;100.00;100968.56;2107498;28;20543;-63
2022/01/07 03:46:54;;;;;;;5.23;2.23;;;;;;;1.29;100.00;100964.25;2107453;28;20032;-62
2022/01/07 03:47:55;;;;;;;6.40;2.50;;;;;;;1.30;100.00;100965.13;2107483;28;20076;-63
2022/01/07 03:48:55;;;;;;;5.68;2.78;;;;;;;1.28;100.00;100958.28;2098471;28;20020;-63
2022/01/07 03:49:56;;;;;;;6.10;2.40;;;;;;;1.29;100.00;100953.97;2098441;28;20020;-63
2022/01/07 03:50:56;;;;;;;5.50;2.70;;;;;;;1.29;100.00;100953.97;2107463;28;20282;-62
2022/01/07 03:51:56;;;;;;;5.97;2.87;;;;;;;1.30;100.00;100960.00;2107405;28;20020;-63
2022/01/07 03:52:58;;;;;;;6.47;2.40;;;;;;;1.28;100.00;100953.16;2107477;28;20054;-62
2022/01/07 03:53:58;;;;;;;6.47;2.60;;;;;;;1.30;100.00;100954.84;2107359;28;20028;-63
2022/01/07 03:54:58;;;;;;;5.63;2.27;;;;;;;1.29;100.00;100953.97;2107466;28;20093;-62
2022/01/07 03:55:58;;;;;;;4.77;2.93;;;;;;;1.31;100.00;100948.84;2107418;28;20023;-62
2022/01/07 03:56:59;;;;;;;5.27;2.83;;;;;;;1.30;100.00;100955.69;2107399;28;20043;-63
2022/01/07 03:58:00;;;;;;;9.37;3.37;;;;;;;1.31;100.00;100956.56;2098419;28;20028;-63
2022/01/07 03:59:00;;;;;;;12.70;3.00;;;;;;;1.30;100.00;100954.84;2098456;28;20025;-62
2022/01/07 04:00:00;;;;;;;4.90;2.40;;;;;;;1.31;100.00;100951.41;2107367;28;20134;-62
2022/01/07 04:01:01;;;;;;;6.37;2.80;;;;;;;1.31;100.00;100951.41;2098241;28;20048;-62
2022/01/07 04:02:01;;;;;;;3.57;2.20;;;;;;;1.31;100.00;100951.41;2098445;28;20518;-63
2022/01/07 04:03:14;;;;;;;4.73;2.20;;;;;;;1.32;100.00;100942.81;2107287;28;20032;-62
2022/01/07 04:04:14;;;;;;;8.52;2.70;;;;;;;1.32;100.00;100940.25;2107365;28;20381;-62
2022/01/07 04:05:18;;;;;;;6.47;2.53;;;;;;;1.32;100.00;100935.97;2107380;28;20099;-62
2022/01/07 04:06:20;;;;;;;4.97;2.30;;;;;;;1.33;100.00;100939.41;2107293;28;20397;-62
2022/01/07 04:07:20;;;;;;;4.90;2.70;;;;;;;1.34;100.00;100935.97;2107284;28;20020;-62
2022/01/07 04:08:21;;;;;;;7.30;2.57;;;;;;;1.35;100.00;100937.69;2107372;28;20052;-62
2022/01/07 04:09:21;;;;;;;5.77;2.70;;;;;;;1.35;100.00;100946.25;2098230;28;20473;-62
2022/01/07 04:10:21;;;;;;;3.77;2.40;;;;;;;1.36;100.00;100939.38;2098367;28;20027;-62
2022/01/07 04:11:22;;;;;;;5.10;2.33;;;;;;;1.35;100.00;100933.41;2107250;28;20036;-62
2022/01/07 04:12:22;;;;;;;4.50;2.60;;;;;;;1.36;100.00;100937.69;2098302;28;20116;-63
2022/01/07 04:13:22;;;;;;;6.87;2.40;;;;;;;1.35;100.00;100922.25;2098398;28;20467;-62
2022/01/07 04:14:22;;;;;;;6.20;2.30;;;;;;;1.34;100.00;100926.56;2107205;28;20367;-63
2022/01/07 04:15:23;;;;;;;4.53;2.27;;;;;;;1.36;100.00;100934.25;2106590;28;20046;-62
2022/01/07 04:16:23;;;;;;;4.75;2.47;;;;;;;1.37;100.00;100933.41;2106686;28;20441;-62
2022/01/07 04:17:24;;;;;;;5.37;2.40;;;;;;;1.36;100.00;100929.09;2107285;28;20035;-63
2022/01/07 04:18:24;;;;;;;5.27;2.23;;;;;;;1.35;100.00;100928.25;2098129;28;20033;-62
2022/01/07 04:19:24;;;;;;;5.33;2.97;;;;;;;1.37;100.00;100933.41;2089879;28;20067;-63
2022/01/07 04:20:28;;;;;;;4.70;2.00;;;;;;;1.37;100.00;100936.81;2098267;28;20390;-63
2022/01/07 04:21:28;;;;;;;4.38;2.33;;;;;;;1.39;100.00;100935.09;2107110;28;20098;-62
2022/01/07 04:22:28;;;;;;;5.30;2.60;;;;;;;1.38;100.00;100925.69;2098183;28;20016;-62
2022/01/07 04:23:29;;;;;;;4.15;2.22;;;;;;;1.41;100.00;100937.69;2098289;28;20025;-62
2022/01/07 04:24:29;;;;;;;3.20;2.57;;;;;;;1.41;100.00;100924.81;2107213;28;20396;-62
2022/01/07 04:25:30;;;;;;;3.60;2.30;;;;;;;1.40;100.00;100931.66;2107179;28;20497;-63
2022/01/07 04:26:30;;;;;;;5.53;2.10;;;;;;;1.42;100.00;100939.38;2107151;28;20397;-62
2022/01/07 04:27:31;;;;;;;4.20;2.10;;;;;;;1.43;100.00;100933.38;2107253;28;20131;-63
2022/01/07 04:28:31;;;;;;;5.97;3.25;;;;;;;1.43;100.00;100930.81;2107061;28;20063;-63
2022/01/07 04:29:31;;;;;;;4.90;2.50;;;;;;;1.44;100.00;100929.97;2107196;28;20052;-62
2022/01/07 04:30:35;;;;;;;4.43;2.70;;;;;;;1.45;100.00;100929.09;2107041;28;20496;-62
2022/01/07 04:31:35;;;;;;;3.33;2.55;;;;;;;1.46;100.00;100929.94;2107202;28;20424;-62
2022/01/07 04:32:37;;;;;;;3.10;2.30;;;;;;;1.47;100.00;100940.22;2107178;28;20028;-63
2022/01/07 04:33:37;;;;;;;3.50;2.33;;;;;;;1.48;100.00;100929.09;2107118;28;20392;-64
2022/01/07 04:34:38;;;;;;;3.20;2.10;;;;;;;1.51;100.00;100947.06;2098109;28;20059;-62
2022/01/07 04:35:39;;;;;;;4.28;2.47;;;;;;;1.51;100.00;100939.34;2098142;28;20032;-64
2022/01/07 04:36:39;;;;;;;6.32;2.72;;;;;;;1.52;100.00;100940.22;2106484;28;20419;-64
2022/01/07 04:37:40;;;;;;;3.60;2.57;;;;;;;1.54;100.00;100938.50;2107117;28;20016;-63
2022/01/07 04:38:41;;;;;;;3.95;2.47;;;;;;;1.56;100.00;100936.78;2107140;28;20020;-63
2022/01/07 04:39:41;;;;;;;5.20;2.63;;;;;;;1.57;100.00;100937.63;2107062;28;20073;-63
2022/01/07 04:40:41;;;;;;;7.85;3.33;;;;;;;1.58;100.00;100936.78;2107129;28;20015;-62
2022/01/07 04:41:42;;;;;;;6.23;2.27;;;;;;;1.61;100.00;100944.47;2107063;28;20068;-62
2022/01/07 04:42:42;;;;;;;4.40;2.13;;;;;;;1.63;100.00;100942.75;2106989;28;20380;-62
2022/01/07 04:43:43;;;;;;;3.40;2.70;;;;;;;1.64;100.00;100939.34;2097970;28;20026;-62
2022/01/07 04:44:43;;;;;;;3.30;2.17;;;;;;;1.65;100.00;100936.72;2098188;28;20059;-62
2022/01/07 04:45:44;;;;;;;5.40;2.40;;;;;;;1.67;100.00;100937.59;2107102;28;20028;-62